createdAt,value
2019-01-28T00:00:30.837Z,7.66
2019-01-28T00:03:05.306Z,7.64
2019-01-28T00:05:36.949Z,7.65
2019-01-28T00:08:08.653Z,7.63
2019-01-28T00:10:40.294Z,7.62
2019-01-28T00:13:12.200Z,7.61
2019-01-28T00:15:45.158Z,7.60
2019-01-28T00:18:16.942Z,7.60
2019-01-28T00:20:50.161Z,7.58
2019-01-28T00:23:23.856Z,7.58
2019-01-28T00:25:55.515Z,7.56
2019-01-28T00:28:27.345Z,7.55
2019-01-28T00:31:00.193Z,7.54
2019-01-28T00:33:31.831Z,7.53
2019-01-28T00:36:03.745Z,7.52
2019-01-28T00:38:35.721Z,7.50
2019-01-28T00:41:07.292Z,7.47
2019-01-28T00:43:38.990Z,7.44
2019-01-28T00:46:10.647Z,7.44
2019-01-28T00:48:42.305Z,7.43
2019-01-28T00:51:14.087Z,7.43
2019-01-28T00:53:45.690Z,7.42
2019-01-28T00:56:17.301Z,7.40
2019-01-28T00:58:48.975Z,7.41
2019-01-28T01:01:21.218Z,7.43
2019-01-28T01:03:52.822Z,7.46
2019-01-28T01:06:24.634Z,7.48
2019-01-28T01:08:56.535Z,7.51
2019-01-28T01:11:28.203Z,7.55
2019-01-28T01:13:59.859Z,7.57
2019-01-28T01:16:32.394Z,7.57
2019-01-28T01:19:04.298Z,7.56
2019-01-28T01:21:39.699Z,7.56
2019-01-28T01:24:12.320Z,7.57
2019-01-28T01:26:43.985Z,7.55
2019-01-28T01:29:16.685Z,7.54
2019-01-28T01:31:48.367Z,7.53
2019-01-28T01:34:19.998Z,7.54
2019-01-28T01:36:51.791Z,7.55
2019-01-28T01:39:23.419Z,7.56
2019-01-28T01:41:55.059Z,7.57
2019-01-28T01:44:26.802Z,7.55
2019-01-28T01:46:58.389Z,7.56
2019-01-28T01:49:29.999Z,7.56
2019-01-28T01:52:02.813Z,7.56
2019-01-28T01:54:35.543Z,7.57
2019-01-28T01:57:07.247Z,7.60
2019-01-28T01:59:38.829Z,7.63
2019-01-28T02:02:15.688Z,7.64
2019-01-28T02:04:47.443Z,7.66
2019-01-28T02:07:19.336Z,7.66
2019-01-28T02:09:51.202Z,7.68
2019-01-28T02:12:22.849Z,7.66
2019-01-28T02:14:54.637Z,7.64
2019-01-28T02:17:28.372Z,7.62
2019-01-28T02:20:00.480Z,7.60
2019-01-28T02:22:32.674Z,7.55
2019-01-28T02:25:06.257Z,7.50
2019-01-28T02:27:38.254Z,7.52
2019-01-28T02:30:14.250Z,7.54
2019-01-28T02:32:46.412Z,7.54
2019-01-28T02:35:19.420Z,7.54
2019-01-28T02:37:50.967Z,7.53
2019-01-28T02:40:24.218Z,7.49
2019-01-28T02:42:55.826Z,7.43
2019-01-28T02:45:28.388Z,7.37
2019-01-28T02:48:00.059Z,7.32
2019-01-28T02:50:31.678Z,7.28
2019-01-28T02:53:03.402Z,7.26
2019-01-28T02:55:35.119Z,7.25
2019-01-28T02:58:07.005Z,7.25
2019-01-28T03:00:38.730Z,7.24
2019-01-28T03:03:10.413Z,7.22
2019-01-28T03:05:42.152Z,7.20
2019-01-28T03:08:13.797Z,7.20
2019-01-28T03:10:45.625Z,7.18
2019-01-28T03:13:17.222Z,7.17
2019-01-28T03:15:51.067Z,7.18
2019-01-28T03:18:22.765Z,7.16
2019-01-28T03:20:54.356Z,7.10
2019-01-28T03:23:28.091Z,7.07
2019-01-28T03:25:59.813Z,7.04
2019-01-28T03:28:31.435Z,7.00
2019-01-28T03:31:03.057Z,6.96
2019-01-28T03:33:34.753Z,6.94
2019-01-28T03:36:06.467Z,6.90
2019-01-28T03:38:38.031Z,6.88
2019-01-28T03:41:09.853Z,6.84
2019-01-28T03:43:41.602Z,6.83
2019-01-28T03:46:14.490Z,6.81
2019-01-28T03:48:46.301Z,6.80
2019-01-28T03:51:18.045Z,6.80
2019-01-28T03:53:49.892Z,6.75
2019-01-28T03:56:21.652Z,6.70
2019-01-28T03:58:53.424Z,6.65
2019-01-28T04:01:26.619Z,6.63
2019-01-28T04:03:58.600Z,6.59
2019-01-28T04:06:30.192Z,6.56
2019-01-28T04:09:01.915Z,6.54
2019-01-28T04:11:33.480Z,6.57
2019-01-28T04:14:06.082Z,6.58
2019-01-28T04:16:38.805Z,6.57
2019-01-28T04:19:10.456Z,6.56
2019-01-28T04:21:42.149Z,6.55
2019-01-28T04:24:14.051Z,6.55
2019-01-28T04:26:46.251Z,6.55
2019-01-28T04:29:18.139Z,6.53
2019-01-28T04:31:49.803Z,6.52
2019-01-28T04:34:21.497Z,6.51
2019-01-28T04:36:53.089Z,6.50
2019-01-28T04:39:25.079Z,6.52
2019-01-28T04:41:56.973Z,6.54
2019-01-28T04:44:28.706Z,6.54
2019-01-28T04:47:00.335Z,6.53
2019-01-28T04:49:32.411Z,6.53
2019-01-28T04:52:04.010Z,6.55
2019-01-28T04:54:35.893Z,6.56
2019-01-28T04:57:07.933Z,6.56
2019-01-28T04:59:39.801Z,6.53
2019-01-28T05:02:11.518Z,6.52
2019-01-28T05:04:43.135Z,6.50
2019-01-28T05:07:15.788Z,6.49
2019-01-28T05:09:47.677Z,6.45
2019-01-28T05:12:23.216Z,6.43
2019-01-28T05:14:55.042Z,6.44
2019-01-28T05:17:28.928Z,6.46
2019-01-28T05:20:00.563Z,6.48
2019-01-28T05:22:32.216Z,6.49
2019-01-28T05:25:03.857Z,6.48
2019-01-28T05:27:36.845Z,6.48
2019-01-28T05:30:14.320Z,6.48
2019-01-28T05:32:46.167Z,6.50
2019-01-28T05:35:18.626Z,6.50
2019-01-28T05:37:50.387Z,6.48
2019-01-28T05:40:24.006Z,6.50
2019-01-28T05:42:56.525Z,6.53
2019-01-28T05:45:28.305Z,6.55
2019-01-28T05:48:00.258Z,6.55
2019-01-28T05:50:31.860Z,6.55
2019-01-28T05:53:03.479Z,6.55
2019-01-28T05:55:35.085Z,6.55
2019-01-28T05:58:06.713Z,6.56
2019-01-28T06:00:41.675Z,6.55
2019-01-28T06:03:13.533Z,6.52
2019-01-28T06:05:45.552Z,6.52
2019-01-28T06:08:17.172Z,6.53
2019-01-28T06:10:48.797Z,6.52
2019-01-28T06:13:20.456Z,6.52
2019-01-28T06:15:52.732Z,6.50
2019-01-28T06:18:24.504Z,6.47
2019-01-28T06:20:56.336Z,6.44
2019-01-28T06:23:28.078Z,6.42
2019-01-28T06:25:59.826Z,6.42
2019-01-28T06:28:31.997Z,6.44
2019-01-28T06:31:03.706Z,6.45
2019-01-28T06:33:35.449Z,6.47
2019-01-28T06:36:07.565Z,6.48
2019-01-28T06:38:39.576Z,6.47
2019-01-28T06:41:12.928Z,6.47
2019-01-28T06:43:44.712Z,6.47
2019-01-28T06:46:18.066Z,6.48
2019-01-28T06:48:49.901Z,6.48
2019-01-28T06:51:21.534Z,6.47
2019-01-28T06:53:53.487Z,6.44
2019-01-28T06:56:25.211Z,6.42
2019-01-28T06:58:57.137Z,6.41
2019-01-28T07:01:28.839Z,6.43
2019-01-28T07:04:00.751Z,6.43
2019-01-28T07:06:32.353Z,6.43
2019-01-28T07:09:05.947Z,6.44
2019-01-28T07:11:37.575Z,6.46
2019-01-28T07:14:09.211Z,6.47
2019-01-28T07:16:41.584Z,6.48
2019-01-28T07:19:16.751Z,6.48
2019-01-28T07:21:50.046Z,6.46
2019-01-28T07:24:21.908Z,6.42
2019-01-28T07:26:53.544Z,6.38
2019-01-28T07:29:25.418Z,6.35
2019-01-28T07:31:57.020Z,6.35
2019-01-28T07:34:28.860Z,6.34
2019-01-28T07:37:00.576Z,6.32
2019-01-28T07:39:33.516Z,6.30
2019-01-28T07:42:05.312Z,6.28
2019-01-28T07:44:36.976Z,6.25
2019-01-28T07:47:08.648Z,6.23
2019-01-28T07:49:40.584Z,6.20
2019-01-28T07:52:13.266Z,6.18
2019-01-28T07:54:44.924Z,6.18
2019-01-28T07:57:16.533Z,6.18
2019-01-28T07:59:48.128Z,6.18
2019-01-28T08:02:19.907Z,6.18
2019-01-28T08:04:51.779Z,6.18
2019-01-28T08:07:23.879Z,6.20
2019-01-28T08:09:55.620Z,6.21
2019-01-28T08:12:27.447Z,6.21
2019-01-28T08:14:59.264Z,6.20
2019-01-28T08:17:31.599Z,6.20
2019-01-28T08:20:11.192Z,6.20
2019-01-28T08:22:36.814Z,6.21
2019-01-28T08:25:10.950Z,6.23
2019-01-28T08:27:42.827Z,6.23
2019-01-28T08:30:30.340Z,6.26
2019-01-28T08:33:03.076Z,6.28
2019-01-28T08:35:36.635Z,6.29
2019-01-28T08:38:08.501Z,6.32
2019-01-28T08:40:40.134Z,6.38
2019-01-28T08:43:11.858Z,6.45
2019-01-28T08:45:46.671Z,6.51
2019-01-28T08:48:20.074Z,6.54
2019-01-28T08:50:51.834Z,6.57
2019-01-28T08:53:23.985Z,6.61
2019-01-28T08:55:55.956Z,6.63
2019-01-28T08:58:28.039Z,6.65
2019-01-28T09:01:00.692Z,6.67
2019-01-28T09:03:32.377Z,6.67
2019-01-28T09:06:04.052Z,6.65
2019-01-28T09:08:35.881Z,6.65
2019-01-28T09:11:07.741Z,6.64
2019-01-28T09:13:39.424Z,6.65
2019-01-28T09:16:12.130Z,6.64
2019-01-28T09:18:44.029Z,6.62
2019-01-28T09:21:15.711Z,6.62
2019-01-28T09:23:47.633Z,6.60
2019-01-28T09:26:19.344Z,6.58
2019-01-28T09:28:51.012Z,6.56
2019-01-28T09:31:23.522Z,6.58
2019-01-28T09:33:55.275Z,6.58
2019-01-28T09:36:26.934Z,6.58
2019-01-28T09:39:18.142Z,6.59
2019-01-28T09:41:51.288Z,6.62
2019-01-28T09:44:23.320Z,6.64
2019-01-28T09:46:55.525Z,6.63
2019-01-28T09:49:27.260Z,6.65
2019-01-28T09:51:58.890Z,6.66
2019-01-28T09:54:30.953Z,6.68
2019-01-28T09:57:02.733Z,6.70
2019-01-28T09:59:36.433Z,6.72
2019-01-28T10:02:08.482Z,6.72
2019-01-28T10:04:40.340Z,6.71
2019-01-28T10:07:12.029Z,6.72
2019-01-28T10:09:44.013Z,6.74
2019-01-28T10:12:15.929Z,6.75
2019-01-28T10:14:47.619Z,6.76
2019-01-28T10:17:21.558Z,6.76
2019-01-28T10:19:56.231Z,6.76
2019-01-28T10:22:28.237Z,6.78
2019-01-28T10:25:00.239Z,6.79
2019-01-28T10:27:33.256Z,6.79
2019-01-28T10:30:08.802Z,6.79
2019-01-28T10:32:40.563Z,6.79
2019-01-28T10:35:14.260Z,6.80
2019-01-28T10:37:46.101Z,6.82
2019-01-28T10:40:22.661Z,6.81
2019-01-28T10:42:54.462Z,6.77
2019-01-28T10:45:26.316Z,6.74
2019-01-28T10:48:00.720Z,6.71
2019-01-28T10:50:31.783Z,6.69
2019-01-28T10:53:03.412Z,6.66
2019-01-28T10:55:35.136Z,6.66
2019-01-28T10:58:07.599Z,6.64
2019-01-28T11:00:44.410Z,6.64
2019-01-28T11:03:20.159Z,6.65
2019-01-28T11:05:52.262Z,6.68
2019-01-28T11:08:24.067Z,6.69
2019-01-28T11:10:55.732Z,6.71
2019-01-28T11:13:28.364Z,6.70
2019-01-28T11:16:00.713Z,6.66
2019-01-28T11:18:33.314Z,6.59
2019-01-28T11:21:05.495Z,6.56
2019-01-28T11:23:37.205Z,6.55
2019-01-28T11:26:08.939Z,6.51
2019-01-28T11:28:41.077Z,6.52
2019-01-28T11:31:12.950Z,6.52
2019-01-28T11:33:44.685Z,6.51
2019-01-28T11:36:16.440Z,6.51
2019-01-28T11:38:49.471Z,6.52
2019-01-28T11:41:21.210Z,6.51
2019-01-28T11:43:54.018Z,6.50
2019-01-28T11:46:25.791Z,6.51
2019-01-28T11:49:05.535Z,6.53
2019-01-28T11:51:31.462Z,6.54
2019-01-28T11:54:04.925Z,6.54
2019-01-28T11:56:36.558Z,6.56
2019-01-28T11:59:08.622Z,6.58
2019-01-28T12:01:40.669Z,6.59
2019-01-28T12:04:13.938Z,6.59
2019-01-28T12:06:45.743Z,6.61
2019-01-28T12:09:17.397Z,6.64
2019-01-28T12:11:49.054Z,6.65
2019-01-28T12:14:20.695Z,6.63
2019-01-28T12:16:56.782Z,6.60
2019-01-28T12:19:29.950Z,6.60
2019-01-28T12:22:01.750Z,6.61
2019-01-28T12:24:33.397Z,6.60
2019-01-28T12:27:05.331Z,6.59
2019-01-28T12:29:37.117Z,6.61
2019-01-28T12:32:11.606Z,6.60
2019-01-28T12:34:43.551Z,6.60
2019-01-28T12:37:15.203Z,6.59
2019-01-28T12:39:46.911Z,6.59
2019-01-28T12:42:19.925Z,6.57
2019-01-28T12:44:51.557Z,6.57
2019-01-28T12:47:23.594Z,6.56
2019-01-28T12:49:56.369Z,6.56
2019-01-28T12:52:28.289Z,6.54
2019-01-28T12:54:59.941Z,6.53
2019-01-28T12:57:31.773Z,6.52
2019-01-28T13:00:03.519Z,6.55
2019-01-28T13:02:35.346Z,6.57
2019-01-28T13:05:10.387Z,6.55
2019-01-28T13:07:42.510Z,6.57
2019-01-28T13:10:17.527Z,6.55
2019-01-28T13:12:49.453Z,6.51
2019-01-28T13:15:24.942Z,6.49
2019-01-28T13:17:59.164Z,6.47
2019-01-28T13:20:31.097Z,6.51
2019-01-28T13:23:02.965Z,6.50
2019-01-28T13:25:36.281Z,6.48
2019-01-28T13:28:09.569Z,6.46
2019-01-28T13:30:41.452Z,6.45
2019-01-28T13:33:17.362Z,6.43
2019-01-28T13:35:49.404Z,6.39
2019-01-28T13:38:21.290Z,6.39
2019-01-28T13:40:52.968Z,6.40
2019-01-28T13:43:24.855Z,6.42
2019-01-28T13:45:56.577Z,6.43
2019-01-28T13:48:28.411Z,6.44
2019-01-28T13:51:00.213Z,6.48
2019-01-28T13:53:32.914Z,6.51
2019-01-28T13:56:04.696Z,6.52
2019-01-28T13:58:36.405Z,6.53
2019-01-28T14:01:09.522Z,6.54
2019-01-28T14:03:41.223Z,6.54
2019-01-28T14:06:13.261Z,6.51
2019-01-28T14:08:46.784Z,6.51
2019-01-28T14:11:19.240Z,6.50
2019-01-28T14:13:50.981Z,6.51
2019-01-28T14:16:22.841Z,6.51
2019-01-28T14:18:55.168Z,6.51
2019-01-28T14:21:30.147Z,6.53
2019-01-28T14:24:09.294Z,6.55
2019-01-28T14:26:42.669Z,6.54
2019-01-28T14:29:17.339Z,6.54
2019-01-28T14:31:50.482Z,6.54
2019-01-28T14:34:30.345Z,6.53
2019-01-28T14:37:05.989Z,6.53
2019-01-28T14:39:48.224Z,6.53
2019-01-28T14:42:30.148Z,6.53
2019-01-28T14:45:05.243Z,6.53
2019-01-28T14:47:39.094Z,6.52
2019-01-28T14:50:26.704Z,6.51
2019-01-28T14:53:01.969Z,6.51
2019-01-28T14:55:38.334Z,6.51
2019-01-28T14:58:16.438Z,6.52
2019-01-28T15:00:52.150Z,6.51
2019-01-28T15:03:27.125Z,6.51
2019-01-28T15:06:03.117Z,6.55
2019-01-28T15:08:37.410Z,6.59
2019-01-28T15:11:12.799Z,6.64
2019-01-28T15:13:55.124Z,6.68
2019-01-28T15:16:31.201Z,6.71
2019-01-28T15:19:08.840Z,6.73
2019-01-28T15:21:45.138Z,6.74
2019-01-28T15:24:20.635Z,6.77
2019-01-28T15:26:56.751Z,6.78
2019-01-28T15:29:28.615Z,6.81
2019-01-28T15:32:00.356Z,6.81
2019-01-28T15:34:32.134Z,6.83
2019-01-28T15:37:03.824Z,6.84
2019-01-28T15:39:35.820Z,6.85
2019-01-28T15:42:07.879Z,6.88
2019-01-28T15:44:39.712Z,6.89
2019-01-28T15:47:11.492Z,6.89
2019-01-28T15:49:43.248Z,6.91
2019-01-28T15:52:15.261Z,6.92
2019-01-28T15:54:46.972Z,6.92
2019-01-28T15:57:18.771Z,6.92
2019-01-28T15:59:50.885Z,6.93
2019-01-28T16:02:22.923Z,6.92
2019-01-28T16:04:54.726Z,6.89
2019-01-28T16:07:26.457Z,6.84
2019-01-28T16:09:59.348Z,6.79
2019-01-28T16:12:31.036Z,6.75
2019-01-28T16:15:02.880Z,6.72
2019-01-28T16:17:35.768Z,6.71
2019-01-28T16:20:08.857Z,6.70
2019-01-28T16:22:40.505Z,6.70
2019-01-28T16:25:13.224Z,6.70
2019-01-28T16:27:45.062Z,6.70
2019-01-28T16:30:26.227Z,6.70
2019-01-28T16:32:59.681Z,6.70
2019-01-28T16:35:45.962Z,6.71
2019-01-28T16:38:31.531Z,6.68
2019-01-28T16:41:05.639Z,6.65
2019-01-28T16:43:38.495Z,6.65
2019-01-28T16:46:10.357Z,6.65
2019-01-28T16:48:42.566Z,6.67
2019-01-28T16:51:14.241Z,6.68
2019-01-28T16:53:46.159Z,6.68
2019-01-28T16:56:20.158Z,6.71
2019-01-28T16:58:51.841Z,6.72
2019-01-28T17:01:23.533Z,6.74
2019-01-28T17:03:55.347Z,6.75
2019-01-28T17:06:27.169Z,6.79
2019-01-28T17:08:58.900Z,6.81
2019-01-28T17:11:30.570Z,6.82
2019-01-28T17:14:02.313Z,6.84
2019-01-28T17:16:34.077Z,6.85
2019-01-28T17:19:06.594Z,6.86
2019-01-28T17:21:40.497Z,6.88
2019-01-28T17:24:15.120Z,6.89
2019-01-28T17:26:53.072Z,6.87
2019-01-28T17:29:31.863Z,6.86
2019-01-28T17:32:11.308Z,6.86
2019-01-28T17:34:48.557Z,6.84
2019-01-28T17:37:26.291Z,6.83
2019-01-28T17:40:07.012Z,6.83
2019-01-28T17:42:42.469Z,6.81
2019-01-28T17:45:21.458Z,6.81
2019-01-28T17:47:56.125Z,6.81
2019-01-28T17:50:30.748Z,6.82
2019-01-28T17:53:06.555Z,6.82
2019-01-28T17:55:41.209Z,6.81
2019-01-28T17:58:16.026Z,6.80
2019-01-28T18:00:51.222Z,6.80
2019-01-28T18:03:28.678Z,6.79
2019-01-28T18:06:08.457Z,6.79
2019-01-28T18:08:40.299Z,6.79
2019-01-28T18:11:14.432Z,6.80
2019-01-28T18:13:46.198Z,6.81
2019-01-28T18:16:20.471Z,6.83
2019-01-28T18:18:57.176Z,6.83
2019-01-28T18:21:32.375Z,6.83
2019-01-28T18:24:04.547Z,6.84
2019-01-28T18:26:36.276Z,6.85
2019-01-28T18:29:08.065Z,6.85
2019-01-28T18:31:39.915Z,6.85
2019-01-28T18:34:11.753Z,6.84
2019-01-28T18:36:45.465Z,6.83
2019-01-28T18:39:18.127Z,6.83
2019-01-28T18:41:49.984Z,6.83
2019-01-28T18:44:23.284Z,6.84
2019-01-28T18:46:54.994Z,6.84
2019-01-28T18:49:26.837Z,6.84
2019-01-28T18:52:00.201Z,6.84
2019-01-28T18:54:31.967Z,6.85
2019-01-28T18:57:03.689Z,6.84
2019-01-28T18:59:35.565Z,6.84
2019-01-28T19:02:08.391Z,6.85
2019-01-28T19:04:40.043Z,6.82
2019-01-28T19:07:40.157Z,6.83
2019-01-28T19:10:34.719Z,6.83
2019-01-28T19:13:40.477Z,6.84
2019-01-28T19:16:33.716Z,6.85
2019-01-28T19:19:34.277Z,6.83
2019-01-28T19:22:06.235Z,6.82
2019-01-28T19:24:37.931Z,6.82
2019-01-28T19:27:09.869Z,6.81
2019-01-28T19:29:41.843Z,6.81
2019-01-28T19:32:13.597Z,6.79
2019-01-28T19:34:45.265Z,6.77
2019-01-28T19:37:17.320Z,6.73
2019-01-28T19:39:49.395Z,6.70
2019-01-28T19:42:21.315Z,6.68
2019-01-28T19:44:53.189Z,6.64
2019-01-28T19:47:25.007Z,6.62
2019-01-28T19:49:56.926Z,6.61
2019-01-28T19:52:28.946Z,6.59
2019-01-28T19:55:02.035Z,6.58
2019-01-28T19:57:33.667Z,6.55
2019-01-28T20:00:08.003Z,6.52
2019-01-28T20:02:39.771Z,6.48
2019-01-28T20:05:12.621Z,6.45
2019-01-28T20:07:44.407Z,6.39
2019-01-28T20:10:16.416Z,6.37
2019-01-28T20:12:48.403Z,6.34
2019-01-28T20:15:22.342Z,6.32
2019-01-28T20:17:55.526Z,6.28
2019-01-28T20:20:27.322Z,6.25
2019-01-28T20:22:59.152Z,6.22
2019-01-28T20:25:31.442Z,6.18
2019-01-28T20:28:03.168Z,6.16
2019-01-28T20:30:35.341Z,6.11
2019-01-28T20:33:07.576Z,6.08
2019-01-28T20:35:39.423Z,6.05
2019-01-28T20:38:15.915Z,6.02
2019-01-28T20:40:44.593Z,6.01
2019-01-28T20:43:23.684Z,5.97
2019-01-28T20:45:50.356Z,5.93
2019-01-28T20:48:22.101Z,5.91
2019-01-28T20:50:53.855Z,5.89
2019-01-28T20:53:25.669Z,5.86
2019-01-28T20:55:57.740Z,5.83
2019-01-28T20:58:31.084Z,5.82
2019-01-28T21:01:03.096Z,5.82
2019-01-28T21:03:35.210Z,5.79
2019-01-28T21:06:07.660Z,5.78
2019-01-28T21:08:39.479Z,5.77
2019-01-28T21:11:11.159Z,5.75
2019-01-28T21:13:43.769Z,5.76
2019-01-28T21:16:15.909Z,5.77
2019-01-28T21:18:48.271Z,5.77
2019-01-28T21:21:21.301Z,5.77
2019-01-28T21:23:53.254Z,5.77
2019-01-28T21:26:25.050Z,5.77
2019-01-28T21:28:56.904Z,5.78
2019-01-28T21:31:29.002Z,5.77
2019-01-28T21:34:00.934Z,5.76
2019-01-28T21:36:46.756Z,5.76
2019-01-28T21:39:18.471Z,5.74
2019-01-28T21:41:50.127Z,5.74
2019-01-28T21:44:21.831Z,5.73
2019-01-28T21:46:53.572Z,5.73
2019-01-28T21:49:26.939Z,5.72
2019-01-28T21:51:58.957Z,5.71
2019-01-28T21:54:30.756Z,5.70
2019-01-28T21:57:02.569Z,5.70
2019-01-28T21:59:34.381Z,5.69
2019-01-28T22:02:06.225Z,5.71
2019-01-28T22:09:40.730Z,5.76
2019-01-28T22:12:12.839Z,5.76
2019-01-28T22:14:44.489Z,5.78
2019-01-28T22:17:16.295Z,5.78
2019-01-28T22:19:48.732Z,5.78
2019-01-28T22:22:20.366Z,5.76
2019-01-28T22:24:52.014Z,5.74
2019-01-28T22:27:24.764Z,5.73
2019-01-28T22:29:56.551Z,5.74
2019-01-28T22:32:28.291Z,5.74
2019-01-28T22:35:00.210Z,5.76
2019-01-28T22:37:33.404Z,5.80
2019-01-28T22:40:06.336Z,5.81
2019-01-28T22:42:38.574Z,5.82
2019-01-28T22:45:17.051Z,5.83
2019-01-28T22:47:48.687Z,5.83
2019-01-28T22:50:21.053Z,5.83
2019-01-28T22:52:53.003Z,5.82
2019-01-28T22:55:25.201Z,5.80
2019-01-28T22:57:57.171Z,5.80
2019-01-28T23:00:47.323Z,5.81
2019-01-28T23:03:21.398Z,5.82
2019-01-28T23:05:53.339Z,5.81
2019-01-28T23:08:25.073Z,5.82
2019-01-28T23:10:56.890Z,5.82
2019-01-28T23:13:28.874Z,5.81
2019-01-28T23:16:00.804Z,5.81
2019-01-28T23:18:35.148Z,5.82
2019-01-28T23:21:06.895Z,5.81
2019-01-28T23:23:38.594Z,5.81
2019-01-28T23:26:10.291Z,5.81
2019-01-28T23:28:42.050Z,5.83
2019-01-28T23:31:13.686Z,5.85
2019-01-28T23:33:45.393Z,5.88
2019-01-28T23:36:17.006Z,5.90
2019-01-28T23:38:48.664Z,5.91
2019-01-28T23:41:21.024Z,5.92
2019-01-28T23:43:52.920Z,5.94
2019-01-28T23:46:24.567Z,5.94
2019-01-28T23:48:56.485Z,5.96
2019-01-28T23:51:28.113Z,5.95
2019-01-28T23:54:00.129Z,5.95
2019-01-28T23:56:31.791Z,5.94
